createdAt,value
2023-02-27T00:01:53.801Z,99306.63
2023-02-27T00:04:20.261Z,99308.75
2023-02-27T00:06:47.413Z,99309.09
2023-02-27T00:09:15.578Z,99318.94
2023-02-27T00:11:43.493Z,99325.81
2023-02-27T00:14:10.355Z,99320.09
2023-02-27T00:16:36.986Z,99320.41
2023-02-27T00:19:04.874Z,99321.06
2023-02-27T00:21:32.017Z,99326.38
2023-02-27T00:23:58.529Z,99351.72
2023-02-27T00:26:25.053Z,99340.16
2023-02-27T00:28:51.447Z,99341.44
2023-02-27T00:31:17.901Z,99342.84
2023-02-27T00:33:44.388Z,99342.84
2023-02-27T00:36:11.435Z,99336.41
2023-02-27T00:38:37.865Z,99362.16
2023-02-27T00:41:04.361Z,99374.13
2023-02-27T00:43:30.956Z,99369.88
2023-02-27T00:45:57.358Z,99377.66
2023-02-27T00:48:24.279Z,99384.81
2023-02-27T00:50:50.966Z,99375.13
2023-02-27T00:53:18.481Z,99370.25
2023-02-27T00:55:44.879Z,99373.97
2023-02-27T00:58:11.266Z,99396.38
2023-02-27T01:00:37.761Z,99389.81
2023-02-27T01:03:04.373Z,99388.56
2023-02-27T01:05:30.862Z,99395.84
2023-02-27T01:07:57.438Z,99385.81
2023-02-27T01:10:24.014Z,99389.31
2023-02-27T01:12:50.879Z,99383.84
2023-02-27T01:15:17.964Z,99371.81
2023-02-27T01:17:44.495Z,99399.97
2023-02-27T01:20:12.556Z,99393.75
2023-02-27T01:22:39.621Z,99410.47
2023-02-27T01:25:06.335Z,99425.25
2023-02-27T01:27:32.776Z,99436.63
2023-02-27T01:29:59.493Z,99436.09
2023-02-27T01:32:26.272Z,99439.97
2023-02-27T01:34:52.753Z,99445.28
2023-02-27T01:37:19.258Z,99451.84
2023-02-27T01:39:45.674Z,99455.00
2023-02-27T01:42:26.402Z,99449.72
2023-02-27T01:45:11.208Z,99453.72
2023-02-27T01:47:41.953Z,99456.59
2023-02-27T01:50:10.539Z,99447.13
2023-02-27T01:52:39.255Z,99454.81
2023-02-27T01:55:12.648Z,99449.16
2023-02-27T01:57:41.295Z,99450.00
2023-02-27T02:00:09.343Z,99442.38
2023-02-27T02:02:42.300Z,99448.53
2023-02-27T02:05:09.667Z,99455.66
2023-02-27T02:07:38.589Z,99459.28
2023-02-27T02:10:06.484Z,99466.28
2023-02-27T02:12:36.031Z,99463.66
2023-02-27T02:15:03.825Z,99453.47
2023-02-27T02:17:48.021Z,99466.41
2023-02-27T02:20:31.472Z,99463.34
2023-02-27T02:23:22.692Z,99462.72
2023-02-27T02:26:24.728Z,99470.22
2023-02-27T02:28:57.002Z,99450.03
2023-02-27T02:32:04.204Z,99455.31
2023-02-27T02:34:53.191Z,99458.53
2023-02-27T02:37:40.687Z,99453.66
2023-02-27T02:40:21.084Z,99449.06
2023-02-27T02:43:01.431Z,99443.03
2023-02-27T02:45:34.078Z,99441.56
2023-02-27T02:48:28.627Z,99438.00
2023-02-27T02:51:20.269Z,99430.59
2023-02-27T02:53:59.867Z,99442.41
2023-02-27T02:56:36.566Z,99427.81
2023-02-27T02:59:16.288Z,99428.22
2023-02-27T03:01:58.203Z,99434.16
2023-02-27T03:04:35.486Z,99438.84
2023-02-27T03:07:30.287Z,99436.94
2023-02-27T03:10:06.464Z,99437.03
2023-02-27T03:12:35.565Z,99451.13
2023-02-27T03:15:25.730Z,99453.56
2023-02-27T03:17:58.048Z,99447.78
2023-02-27T03:20:30.962Z,99442.69
2023-02-27T03:23:02.881Z,99448.22
2023-02-27T03:25:29.760Z,99442.25
2023-02-27T03:28:00.670Z,99429.63
2023-02-27T03:30:35.688Z,99439.91
2023-02-27T03:33:08.351Z,99440.44
2023-02-27T03:35:49.256Z,99443.91
2023-02-27T03:38:40.572Z,99441.38
2023-02-27T03:41:22.280Z,99441.91
2023-02-27T03:44:14.132Z,99455.56
2023-02-27T03:46:41.211Z,99455.38
2023-02-27T03:49:07.980Z,99455.91
2023-02-27T03:51:35.164Z,99461.59
2023-02-27T03:54:08.234Z,99452.59
2023-02-27T03:56:47.702Z,99458.66
2023-02-27T03:59:14.977Z,99466.34
2023-02-27T04:01:42.947Z,99470.94
2023-02-27T04:04:18.073Z,99477.59
2023-02-27T04:07:25.056Z,99484.38
2023-02-27T04:10:02.381Z,99478.03
2023-02-27T04:12:59.440Z,99476.31
2023-02-27T04:15:43.367Z,99480.78
2023-02-27T04:18:47.497Z,99471.03
2023-02-27T04:21:46.218Z,99467.75
2023-02-27T04:24:36.252Z,99478.31
2023-02-27T04:27:28.801Z,99475.94
2023-02-27T04:30:01.190Z,99481.81
2023-02-27T04:32:37.655Z,99483.22
2023-02-27T04:35:17.632Z,99466.38
2023-02-27T04:37:54.148Z,99483.59
2023-02-27T04:40:36.200Z,99497.31
2023-02-27T04:43:07.703Z,99486.00
2023-02-27T04:45:38.489Z,99487.72
2023-02-27T04:48:13.253Z,99488.41
2023-02-27T04:50:46.626Z,99486.38
2023-02-27T04:53:23.010Z,99485.13
2023-02-27T04:55:54.733Z,99480.88
2023-02-27T04:58:21.050Z,99490.59
2023-02-27T05:00:55.161Z,99484.38
2023-02-27T05:03:26.754Z,99490.50
2023-02-27T05:05:57.732Z,99488.41
2023-02-27T05:08:34.564Z,99485.47
2023-02-27T05:11:11.652Z,99476.63
2023-02-27T05:13:44.557Z,99483.72
2023-02-27T05:16:33.083Z,99486.66
2023-02-27T05:19:02.135Z,99480.22
2023-02-27T05:21:47.410Z,99478.44
2023-02-27T05:24:21.747Z,99487.13
2023-02-27T05:27:09.008Z,99487.78
2023-02-27T05:29:50.842Z,99489.19
2023-02-27T05:32:44.402Z,99488.56
2023-02-27T05:35:45.966Z,99488.72
2023-02-27T05:38:23.430Z,99489.81
2023-02-27T05:40:54.437Z,99490.75
2023-02-27T05:43:31.624Z,99484.34
2023-02-27T05:46:05.536Z,99487.56
2023-02-27T05:48:46.128Z,99484.16
2023-02-27T05:51:15.147Z,99485.56
2023-02-27T05:53:46.429Z,99483.00
2023-02-27T05:56:16.340Z,99486.72
2023-02-27T05:59:00.027Z,99485.22
2023-02-27T06:01:26.500Z,99491.63
2023-02-27T06:03:53.763Z,99483.00
2023-02-27T06:06:22.635Z,99482.06
2023-02-27T06:08:49.117Z,99487.13
2023-02-27T06:11:15.706Z,99492.03
2023-02-27T06:13:42.346Z,99490.88
2023-02-27T06:16:11.724Z,99494.72
2023-02-27T06:18:38.242Z,99504.81
2023-02-27T06:21:05.130Z,99500.19
2023-02-27T06:23:31.691Z,99504.50
2023-02-27T06:25:58.318Z,99503.06
2023-02-27T06:28:24.874Z,99508.28
2023-02-27T06:30:57.304Z,99507.34
2023-02-27T06:33:25.982Z,99503.09
2023-02-27T06:35:53.141Z,99496.75
2023-02-27T06:38:19.755Z,99495.31
2023-02-27T06:40:46.652Z,99498.34
2023-02-27T06:43:13.281Z,99496.31
2023-02-27T06:45:39.812Z,99500.28
2023-02-27T06:48:06.558Z,99499.88
2023-02-27T06:50:33.180Z,99504.34
2023-02-27T06:53:00.035Z,99497.44
2023-02-27T06:55:27.135Z,99488.28
2023-02-27T06:57:53.642Z,99484.06
2023-02-27T07:00:20.485Z,99487.34
2023-02-27T07:02:46.974Z,99480.38
2023-02-27T07:05:13.367Z,99495.72
2023-02-27T07:07:40.266Z,99495.25
2023-02-27T07:10:11.767Z,99491.72
2023-02-27T07:12:39.839Z,99459.22
2023-02-27T07:15:07.665Z,99481.41
2023-02-27T07:17:34.122Z,99475.97
2023-02-27T07:20:00.605Z,99482.94
2023-02-27T07:22:29.166Z,99489.47
2023-02-27T07:24:55.975Z,99476.31
2023-02-27T07:27:22.581Z,99471.03
2023-02-27T07:29:49.282Z,99459.41
2023-02-27T07:32:15.908Z,99454.00
2023-02-27T07:34:42.440Z,99449.44
2023-02-27T07:37:09.536Z,99451.00
2023-02-27T07:39:36.043Z,99444.13
2023-02-27T07:42:02.614Z,99448.34
2023-02-27T07:44:29.374Z,99445.53
2023-02-27T07:46:55.958Z,99460.03
2023-02-27T07:49:22.367Z,99450.81
2023-02-27T07:51:49.232Z,99460.59
2023-02-27T07:54:15.809Z,99452.94
2023-02-27T07:56:42.296Z,99456.34
2023-02-27T07:59:08.791Z,99462.59
2023-02-27T08:01:35.644Z,99441.41
2023-02-27T08:04:02.385Z,99426.63
2023-02-27T08:06:30.047Z,99408.13
2023-02-27T08:08:56.613Z,99371.78
2023-02-27T08:11:23.632Z,99336.16
2023-02-27T08:14:05.429Z,99331.50
2023-02-27T08:16:35.306Z,99230.94
2023-02-27T08:19:01.975Z,99169.22
2023-02-27T08:21:29.274Z,99142.00
2023-02-27T08:23:56.063Z,99137.75
2023-02-27T08:26:23.198Z,99132.69
2023-02-27T08:28:49.733Z,99160.72
2023-02-27T08:31:16.360Z,99254.34
2023-02-27T08:33:42.823Z,99400.94
2023-02-27T08:36:10.232Z,99459.19
2023-02-27T08:38:36.890Z,99496.63
2023-02-27T08:41:03.895Z,99494.06
2023-02-27T08:43:30.325Z,99519.22
2023-02-27T08:45:56.742Z,99587.47
2023-02-27T08:48:24.841Z,99660.91
2023-02-27T08:50:52.690Z,99669.38
2023-02-27T08:53:19.848Z,99563.00
2023-02-27T08:55:50.768Z,99612.13
2023-02-27T08:58:18.431Z,99693.66
2023-02-27T09:00:45.396Z,99702.28
2023-02-27T09:03:11.887Z,99713.28
2023-02-27T09:05:38.786Z,99751.84
2023-02-27T09:08:07.168Z,99799.28
2023-02-27T09:10:34.286Z,99758.84
2023-02-27T09:13:01.257Z,99833.53
2023-02-27T09:15:28.247Z,99809.06
2023-02-27T09:17:56.555Z,99789.81
2023-02-27T09:20:23.250Z,99787.22
2023-02-27T09:22:51.268Z,99880.19
2023-02-27T09:25:17.758Z,99916.13
2023-02-27T09:27:44.459Z,99922.53
2023-02-27T09:30:11.914Z,99899.66
2023-02-27T09:32:38.407Z,99907.53
2023-02-27T09:35:05.190Z,99935.44
2023-02-27T09:37:31.723Z,99908.84
2023-02-27T09:39:58.184Z,99873.88
2023-02-27T09:42:28.888Z,99967.47
2023-02-27T09:45:06.124Z,99927.06
2023-02-27T09:47:40.860Z,99976.38
2023-02-27T09:50:37.998Z,99892.78
2023-02-27T09:53:10.734Z,99879.06
2023-02-27T09:55:40.240Z,99906.25
2023-02-27T09:58:12.706Z,99899.84
2023-02-27T10:00:48.334Z,99908.31
2023-02-27T10:03:49.489Z,99988.94
2023-02-27T10:06:26.910Z,99941.94
2023-02-27T10:09:02.596Z,99959.53
2023-02-27T10:11:54.694Z,99955.56
2023-02-27T10:14:33.207Z,99979.28
2023-02-27T10:17:03.902Z,99950.88
2023-02-27T10:19:37.582Z,100002.34
2023-02-27T10:22:06.501Z,100164.22
2023-02-27T10:24:42.661Z,100142.28
2023-02-27T10:27:16.036Z,100138.56
2023-02-27T10:29:42.843Z,100126.19
2023-02-27T10:32:17.125Z,100138.16
2023-02-27T10:34:47.637Z,100148.50
2023-02-27T10:37:16.312Z,100119.22
2023-02-27T10:39:50.272Z,100148.41
2023-02-27T10:42:18.071Z,100152.94
2023-02-27T10:44:44.645Z,100152.38
2023-02-27T10:47:15.986Z,100150.88
2023-02-27T10:49:44.116Z,100128.06
2023-02-27T10:52:13.334Z,100145.09
2023-02-27T10:54:42.112Z,100116.66
2023-02-27T10:57:42.119Z,100085.22
2023-02-27T11:00:25.746Z,100096.38
2023-02-27T11:02:52.362Z,100090.84
2023-02-27T11:05:29.179Z,100039.63
2023-02-27T11:08:10.503Z,100008.81
2023-02-27T11:10:36.927Z,99955.81
2023-02-27T11:13:06.594Z,99916.81
2023-02-27T11:15:35.973Z,99911.50
2023-02-27T11:18:27.356Z,99904.31
2023-02-27T11:20:54.743Z,99900.78
2023-02-27T11:23:23.734Z,99883.25
2023-02-27T11:25:51.407Z,99849.88
2023-02-27T11:28:28.385Z,99838.25
2023-02-27T11:31:07.531Z,99876.13
2023-02-27T11:33:39.298Z,99887.06
2023-02-27T11:36:06.542Z,99887.72
2023-02-27T11:38:35.802Z,99861.00
2023-02-27T11:41:06.295Z,99825.78
2023-02-27T11:43:49.467Z,99800.19
2023-02-27T11:46:46.337Z,99814.41
2023-02-27T11:49:41.209Z,99818.41
2023-02-27T11:52:21.506Z,99805.34
2023-02-27T11:54:55.466Z,99802.44
2023-02-27T11:57:33.679Z,99753.88
2023-02-27T12:00:19.780Z,99734.78
2023-02-27T12:03:04.935Z,99725.59
2023-02-27T12:05:39.277Z,99707.88
2023-02-27T12:08:42.319Z,99687.31
2023-02-27T12:11:28.246Z,99690.88
2023-02-27T12:14:12.164Z,99692.56
2023-02-27T12:16:46.530Z,99676.03
2023-02-27T12:19:21.533Z,99687.72
2023-02-27T12:21:59.336Z,99643.59
2023-02-27T12:24:28.977Z,99623.63
2023-02-27T12:27:23.834Z,99552.94
2023-02-27T12:30:05.344Z,99521.97
2023-02-27T12:32:44.078Z,99515.72
2023-02-27T12:35:27.097Z,99483.22
2023-02-27T12:37:53.832Z,99479.09
2023-02-27T12:40:25.568Z,99489.06
2023-02-27T12:43:10.011Z,99528.16
2023-02-27T12:45:49.935Z,99550.88
2023-02-27T12:48:25.074Z,99536.34
2023-02-27T12:51:16.678Z,99523.44
2023-02-27T12:53:47.701Z,99489.81
2023-02-27T12:56:20.689Z,99483.31
2023-02-27T12:58:56.273Z,99497.25
2023-02-27T13:01:26.265Z,99502.94
2023-02-27T13:04:00.613Z,99469.47
2023-02-27T13:06:31.878Z,99476.91
2023-02-27T13:09:13.496Z,99506.66
2023-02-27T13:11:57.511Z,99488.72
2023-02-27T13:14:35.095Z,99488.22
2023-02-27T13:17:24.049Z,99491.53
2023-02-27T13:20:13.371Z,99511.88
2023-02-27T13:22:55.524Z,99551.75
2023-02-27T13:25:23.912Z,99538.09
2023-02-27T13:28:02.499Z,99539.09
2023-02-27T13:30:45.330Z,99554.66
2023-02-27T13:33:22.129Z,99552.47
2023-02-27T13:36:03.792Z,99543.31
2023-02-27T13:38:49.599Z,99515.66
2023-02-27T13:41:25.606Z,99558.72
2023-02-27T13:43:59.950Z,99555.13
2023-02-27T13:46:31.527Z,99560.72
2023-02-27T13:49:20.071Z,99571.66
2023-02-27T13:51:56.427Z,99564.09
2023-02-27T13:54:26.282Z,99571.16
2023-02-27T13:56:57.799Z,99557.66
2023-02-27T13:59:31.299Z,99556.66
2023-02-27T14:02:01.052Z,99531.22
2023-02-27T14:04:29.960Z,99533.31
2023-02-27T14:07:00.224Z,99519.75
2023-02-27T14:09:35.901Z,99534.22
2023-02-27T14:12:06.349Z,99531.06
2023-02-27T14:14:45.102Z,99537.72
2023-02-27T14:17:34.402Z,99542.22
2023-02-27T14:20:02.032Z,99524.56
2023-02-27T14:22:33.453Z,99518.31
2023-02-27T14:25:06.625Z,99546.81
2023-02-27T14:27:44.359Z,99563.81
2023-02-27T14:30:37.507Z,99578.66
2023-02-27T14:33:38.048Z,99576.66
2023-02-27T14:36:13.862Z,99546.13
2023-02-27T14:38:40.347Z,99529.16
2023-02-27T14:41:34.354Z,99519.34
2023-02-27T14:44:01.151Z,99537.09
2023-02-27T14:46:36.608Z,99521.94
2023-02-27T14:49:17.114Z,99501.06
2023-02-27T14:51:44.244Z,99479.25
2023-02-27T14:54:20.022Z,99466.13
2023-02-27T14:57:00.974Z,99478.00
2023-02-27T14:59:31.408Z,99462.41
2023-02-27T15:02:02.009Z,99470.91
2023-02-27T15:04:31.043Z,99443.53
2023-02-27T15:07:00.123Z,99434.00
2023-02-27T15:09:37.710Z,99430.03
2023-02-27T15:12:05.044Z,99429.53
2023-02-27T15:14:38.273Z,99408.63
2023-02-27T15:17:16.133Z,99392.28
2023-02-27T15:19:53.766Z,99387.16
2023-02-27T15:22:38.094Z,99418.63
2023-02-27T15:25:07.968Z,99429.69
2023-02-27T15:27:37.638Z,99422.47
2023-02-27T15:30:05.008Z,99438.78
2023-02-27T15:32:36.039Z,99442.00
2023-02-27T15:35:06.481Z,99438.44
2023-02-27T15:37:34.695Z,99445.38
2023-02-27T15:40:01.616Z,99441.47
2023-02-27T15:42:36.579Z,99430.44
2023-02-27T15:45:06.443Z,99421.41
2023-02-27T15:47:34.120Z,99417.38
2023-02-27T15:50:08.572Z,99412.69
2023-02-27T15:52:43.360Z,99428.19
2023-02-27T15:55:15.173Z,99398.06
2023-02-27T15:57:56.562Z,99405.91
2023-02-27T16:00:31.322Z,99380.44
2023-02-27T16:02:59.656Z,99218.66
2023-02-27T16:05:38.361Z,99143.03
2023-02-27T16:08:06.905Z,99128.22
2023-02-27T16:10:44.871Z,99118.53
2023-02-27T16:13:38.560Z,99121.34
2023-02-27T16:16:07.401Z,99130.25
2023-02-27T16:18:38.430Z,99127.31
2023-02-27T16:21:16.069Z,99126.38
2023-02-27T16:23:43.257Z,99132.25
2023-02-27T16:26:33.209Z,99125.34
2023-02-27T16:29:03.965Z,99129.06
2023-02-27T16:31:32.015Z,99125.34
2023-02-27T16:34:01.647Z,99126.72
2023-02-27T16:36:31.125Z,99118.28
2023-02-27T16:39:00.454Z,99131.94
2023-02-27T16:41:27.465Z,99129.47
2023-02-27T16:43:54.458Z,99142.19
2023-02-27T16:46:21.366Z,99138.97
2023-02-27T16:48:53.808Z,99149.41
2023-02-27T16:51:25.080Z,99161.38
2023-02-27T16:53:52.942Z,99186.91
2023-02-27T16:56:29.143Z,99205.56
2023-02-27T16:59:02.827Z,99214.19
2023-02-27T17:01:29.313Z,99226.34
2023-02-27T17:03:55.872Z,99248.16
2023-02-27T17:06:22.510Z,99281.09
2023-02-27T17:08:49.245Z,99302.03
2023-02-27T17:11:15.734Z,99340.63
2023-02-27T17:13:42.134Z,99359.00
2023-02-27T17:16:08.530Z,99401.19
2023-02-27T17:18:36.763Z,99439.91
2023-02-27T17:21:04.890Z,99450.34
2023-02-27T17:23:31.393Z,99482.16
2023-02-27T17:25:58.176Z,99504.72
2023-02-27T17:28:24.656Z,99533.16
2023-02-27T17:30:51.377Z,99533.78
2023-02-27T17:33:18.317Z,99540.75
2023-02-27T17:35:44.774Z,99550.91
2023-02-27T17:38:11.181Z,99561.34
2023-02-27T17:40:39.246Z,99568.94
2023-02-27T17:43:06.187Z,99585.69
2023-02-27T17:45:32.901Z,99585.28
2023-02-27T17:48:00.567Z,99585.81
2023-02-27T17:50:27.032Z,99590.53
2023-02-27T17:52:53.504Z,99592.84
2023-02-27T17:55:19.988Z,99597.44
2023-02-27T17:57:49.213Z,99595.47
2023-02-27T18:00:17.024Z,99593.16
2023-02-27T18:02:45.015Z,99588.59
2023-02-27T18:05:12.120Z,99585.56
2023-02-27T18:07:39.060Z,99589.34
2023-02-27T18:10:07.252Z,99598.28
2023-02-27T18:12:34.270Z,99595.13
2023-02-27T18:15:01.219Z,99589.44
2023-02-27T18:17:28.235Z,99597.72
2023-02-27T18:19:55.663Z,99598.09
2023-02-27T18:22:22.822Z,99603.25
2023-02-27T18:24:52.783Z,99588.97
2023-02-27T18:27:20.972Z,99597.47
2023-02-27T18:29:48.338Z,99596.59
2023-02-27T18:32:14.877Z,99596.22
2023-02-27T18:34:42.062Z,99605.53
2023-02-27T18:37:08.472Z,99589.09
2023-02-27T18:39:34.871Z,99602.13
2023-02-27T18:42:01.327Z,99601.34
2023-02-27T18:44:28.095Z,99596.00
2023-02-27T18:46:55.052Z,99597.06
2023-02-27T18:49:21.828Z,99585.00
2023-02-27T18:51:48.898Z,99580.91
2023-02-27T18:54:19.992Z,99572.06
2023-02-27T18:56:48.445Z,99583.25
2023-02-27T18:59:14.905Z,99581.38
2023-02-27T19:01:41.401Z,99581.81
2023-02-27T19:04:09.564Z,99588.59
2023-02-27T19:06:40.601Z,99598.00
2023-02-27T19:09:08.768Z,99597.47
2023-02-27T19:11:35.809Z,99583.34
2023-02-27T19:14:04.408Z,99594.44
2023-02-27T19:16:31.414Z,99596.03
2023-02-27T19:18:59.854Z,99586.13
2023-02-27T19:21:27.534Z,99590.19
2023-02-27T19:23:54.480Z,99587.38
2023-02-27T19:26:23.237Z,99579.56
2023-02-27T19:28:51.545Z,99581.44
2023-02-27T19:31:17.999Z,99577.66
2023-02-27T19:33:44.558Z,99587.63
2023-02-27T19:36:13.847Z,99587.16
2023-02-27T19:38:40.560Z,99586.44
2023-02-27T19:41:09.833Z,99579.88
2023-02-27T19:43:37.438Z,99584.69
2023-02-27T19:46:08.865Z,99576.19
2023-02-27T19:48:36.149Z,99575.38
2023-02-27T19:51:08.971Z,99576.88
2023-02-27T19:53:37.793Z,99570.97
2023-02-27T19:56:16.284Z,99574.59
2023-02-27T19:58:42.714Z,99569.56
2023-02-27T20:01:10.059Z,99570.16
2023-02-27T20:03:43.840Z,99573.16
2023-02-27T20:06:19.378Z,99563.50
2023-02-27T20:08:46.013Z,99559.66
2023-02-27T20:11:13.563Z,99562.16
2023-02-27T20:13:40.361Z,99562.53
2023-02-27T20:16:09.448Z,99565.44
2023-02-27T20:18:36.735Z,99561.00
2023-02-27T20:21:06.725Z,99558.72
2023-02-27T20:23:35.662Z,99553.19
2023-02-27T20:26:13.011Z,99554.06
2023-02-27T20:28:39.817Z,99557.78
2023-02-27T20:31:14.818Z,99556.03
2023-02-27T20:33:41.909Z,99565.28
2023-02-27T20:36:10.548Z,99557.31
2023-02-27T20:38:40.626Z,99546.72
2023-02-27T20:41:09.144Z,99554.06
2023-02-27T20:43:37.961Z,99552.13
2023-02-27T20:46:08.354Z,99555.63
2023-02-27T20:48:35.543Z,99551.38
2023-02-27T20:51:11.474Z,99559.16
2023-02-27T20:53:41.317Z,99547.63
2023-02-27T20:56:08.572Z,99547.50
2023-02-27T20:58:35.272Z,99543.41
2023-02-27T21:01:06.726Z,99543.69
2023-02-27T21:03:38.450Z,99542.81
2023-02-27T21:06:07.176Z,99547.31
2023-02-27T21:08:36.480Z,99536.38
2023-02-27T21:11:14.975Z,99529.94
2023-02-27T21:13:41.476Z,99543.63
2023-02-27T21:16:09.774Z,99544.28
2023-02-27T21:18:37.414Z,99542.50
2023-02-27T21:21:06.634Z,99532.59
2023-02-27T21:23:33.455Z,99533.09
2023-02-27T21:26:00.568Z,99541.16
2023-02-27T21:28:27.093Z,99537.78
2023-02-27T21:30:54.757Z,99539.00
2023-02-27T21:33:23.005Z,99538.72
2023-02-27T21:35:49.837Z,99531.50
2023-02-27T21:38:16.649Z,99543.00
2023-02-27T21:40:43.083Z,99548.06
2023-02-27T21:43:09.739Z,99545.28
2023-02-27T21:45:41.481Z,99543.09
2023-02-27T21:48:08.281Z,99544.56
2023-02-27T21:50:36.155Z,99542.00
2023-02-27T21:53:02.981Z,99545.28
2023-02-27T21:55:29.448Z,99549.25
2023-02-27T21:57:56.794Z,99539.50
2023-02-27T22:00:26.530Z,99545.75
2023-02-27T22:02:53.219Z,99543.59
2023-02-27T22:05:22.263Z,99549.06
2023-02-27T22:07:49.251Z,99541.56
2023-02-27T22:10:16.171Z,99538.47
2023-02-27T22:12:42.658Z,99544.66
2023-02-27T22:15:09.484Z,99528.97
2023-02-27T22:17:35.981Z,99538.97
2023-02-27T22:20:02.416Z,99538.06
2023-02-27T22:22:29.629Z,99540.44
2023-02-27T22:24:56.026Z,99546.91
2023-02-27T22:27:22.506Z,99549.78
2023-02-27T22:29:49.131Z,99551.22
2023-02-27T22:32:15.662Z,99541.44
2023-02-27T22:34:42.111Z,99555.22
2023-02-27T22:37:08.623Z,99547.28
2023-02-27T22:39:35.051Z,99552.38
2023-02-27T22:42:01.624Z,99551.56
2023-02-27T22:44:27.998Z,99546.25
2023-02-27T22:46:55.713Z,99542.88
2023-02-27T22:49:23.571Z,99550.03
2023-02-27T22:51:51.722Z,99552.63
2023-02-27T22:54:19.134Z,99550.34
2023-02-27T22:56:45.532Z,99545.63
2023-02-27T22:59:12.264Z,99549.50
2023-02-27T23:01:38.766Z,99543.59
2023-02-27T23:04:08.388Z,99553.03
2023-02-27T23:06:38.762Z,99553.38
2023-02-27T23:09:07.930Z,99543.63
2023-02-27T23:11:34.319Z,99552.06
2023-02-27T23:14:00.794Z,99549.38
2023-02-27T23:16:27.327Z,99556.03
2023-02-27T23:18:58.553Z,99554.38
2023-02-27T23:21:35.142Z,99553.81
2023-02-27T23:24:13.431Z,99553.03
2023-02-27T23:26:45.817Z,99555.63
2023-02-27T23:29:13.127Z,99558.81
2023-02-27T23:31:40.376Z,99550.44
2023-02-27T23:34:07.051Z,99557.50
2023-02-27T23:36:35.086Z,99554.72
2023-02-27T23:39:05.276Z,99556.66
2023-02-27T23:41:32.823Z,99554.97
2023-02-27T23:43:59.251Z,99563.69
2023-02-27T23:46:30.397Z,99553.03
2023-02-27T23:49:01.041Z,99557.84
2023-02-27T23:51:30.229Z,99553.03
2023-02-27T23:53:57.019Z,99557.28
2023-02-27T23:56:26.466Z,99562.13
2023-02-27T23:58:58.399Z,99553.50
